Time;durP1;ratioP1;P1;durP2;ratioP2;P2;SDS_P1;SDS_P2;PMS_P1;PMS_P2;Temp;Humidity;BMP_temperature;BMP_pressure;BME280_temperature;BME280_humidity;BME280_pressure;Samples;Min_cycle;Max_cycle;Signal;HPM_P1;HPM_P2
2022/09/09 00:02:20;;;;;;;4.08;3.30;;;;;;;12.07;52.19;99929.33;1743363;82;21088;-41
2022/09/09 00:05:18;;;;;;;10.30;3.40;;;;;;;12.06;52.20;99927.75;1743120;82;21005;-40
2022/09/09 00:07:52;;;;;;;6.10;3.70;;;;;;;12.01;52.26;99932.67;1743140;82;20957;-40
2022/09/09 00:10:43;;;;;;;6.60;3.60;;;;;;;11.93;52.42;99937.73;1742930;82;21232;-40
2022/09/09 00:13:23;;;;;;;5.67;3.35;;;;;;;11.89;52.68;99939.59;1742572;82;21044;-41
2022/09/09 00:15:58;;;;;;;5.37;3.75;;;;;;;11.83;52.81;99943.14;1743054;82;20977;-41
2022/09/09 00:18:42;;;;;;;4.95;3.58;;;;;;;11.80;52.82;99943.86;1742977;82;21084;-41
2022/09/09 00:21:17;;;;;;;6.60;3.60;;;;;;;11.78;52.87;99947.49;1706469;84;21041;-41
2022/09/09 00:23:51;;;;;;;5.50;3.67;;;;;;;11.77;53.10;99952.70;1678949;85;21543;-41
2022/09/09 00:26:40;;;;;;;5.65;3.50;;;;;;;11.74;53.07;99955.56;1743057;82;21495;-41
2022/09/09 00:29:18;;;;;;;5.03;3.30;;;;;;;11.73;53.22;99958.05;1742539;82;20973;-41
2022/09/09 00:31:46;;;;;;;6.97;3.45;;;;;;;11.72;53.21;99963.27;1742797;82;21028;-40
2022/09/09 00:34:18;;;;;;;6.30;3.55;;;;;;;11.71;53.48;99969.80;1743019;82;21029;-41
2022/09/09 00:36:44;;;;;;;6.08;3.50;;;;;;;11.70;53.54;99972.33;1742882;82;21212;-40
2022/09/09 00:39:41;;;;;;;5.80;3.60;;;;;;;11.68;53.73;99977.30;1742944;82;21019;-41
2022/09/09 00:42:23;;;;;;;4.90;3.58;;;;;;;11.65;54.02;99975.30;1742521;82;20993;-41
2022/09/09 00:45:21;;;;;;;4.72;3.40;;;;;;;11.59;54.09;99976.70;1742816;82;21562;-40
2022/09/09 00:47:51;;;;;;;5.50;3.80;;;;;;;11.57;54.24;99972.77;1742021;82;21088;-41
2022/09/09 00:50:49;;;;;;;5.83;4.08;;;;;;;11.50;54.61;99973.94;1742929;82;21524;-41
2022/09/09 00:53:37;;;;;;;6.72;3.50;;;;;;;11.44;54.68;99980.20;1742921;82;21013;-40
2022/09/09 00:56:20;;;;;;;6.62;3.75;;;;;;;11.36;55.00;99984.45;1742881;82;21021;-41
2022/09/09 00:59:15;;;;;;;5.05;3.25;;;;;;;11.26;55.05;99990.61;1742855;82;21084;-40
2022/09/09 01:01:43;;;;;;;8.00;3.90;;;;;;;11.23;54.72;99983.73;1743009;82;21041;-40
2022/09/09 01:04:16;;;;;;;6.78;3.80;;;;;;;11.25;54.69;99982.81;1742939;82;21946;-41
2022/09/09 01:06:43;;;;;;;5.22;3.33;;;;;;;11.27;54.46;99984.62;1742832;82;20894;-40
2022/09/09 01:09:31;;;;;;;7.42;3.67;;;;;;;11.30;54.29;99985.27;1742930;82;21037;-40
2022/09/09 01:12:16;;;;;;;6.72;3.55;;;;;;;11.33;54.79;99989.98;1743240;82;20998;-40
2022/09/09 01:14:51;;;;;;;5.20;3.35;;;;;;;11.28;55.14;99987.53;1724585;82;21088;-40
2022/09/09 01:17:29;;;;;;;6.90;3.60;;;;;;;11.18;55.34;99984.75;1743287;82;21083;-40
2022/09/09 01:20:19;;;;;;;6.85;3.62;;;;;;;11.13;55.30;99982.89;1744376;82;21527;-41
2022/09/09 01:23:34;;;;;;;4.85;3.58;;;;;;;11.06;55.44;99975.91;1743041;82;20992;-40
2022/09/09 01:26:10;;;;;;;4.92;3.33;;;;;;;11.02;55.15;99966.89;1707380;83;21046;-40
2022/09/09 01:28:38;;;;;;;5.40;3.45;;;;;;;11.01;55.06;99973.44;1708391;83;21061;-40
2022/09/09 01:31:07;;;;;;;5.45;3.65;;;;;;;11.04;55.06;99978.16;1750746;81;21040;-41
2022/09/09 01:33:36;;;;;;;5.83;3.60;;;;;;;11.05;54.94;99966.97;1715030;83;21085;-41
2022/09/09 01:36:15;;;;;;;5.78;3.92;;;;;;;11.07;54.86;99959.85;1714757;83;21202;-41
2022/09/09 01:38:46;;;;;;;4.62;3.40;;;;;;;11.07;54.77;99957.14;1711628;83;21097;-40
2022/09/09 01:41:13;;;;;;;9.43;3.90;;;;;;;11.05;54.72;99953.41;1714707;83;21045;-40
2022/09/09 01:43:41;;;;;;;7.40;3.92;;;;;;;11.04;54.75;99956.45;1750616;81;21311;-40
2022/09/09 01:46:08;;;;;;;6.70;3.55;;;;;;;11.01;54.82;99954.45;1750693;82;20976;-40
2022/09/09 01:48:37;;;;;;;10.68;4.60;;;;;;;11.00;54.79;99949.59;1746095;81;21056;-40
2022/09/09 01:51:05;;;;;;;8.30;3.67;;;;;;;10.99;54.71;99941.22;1750816;82;21573;-41
2022/09/09 01:53:33;;;;;;;6.95;3.98;;;;;;;11.00;54.66;99949.59;1751310;82;21009;-40
2022/09/09 01:56:25;;;;;;;8.58;3.92;;;;;;;11.00;54.73;99948.23;1751125;82;23116;-40
2022/09/09 01:59:24;;;;;;;6.00;3.98;;;;;;;11.01;54.70;99953.09;1751366;82;21519;-40
2022/09/09 02:02:13;;;;;;;6.90;3.77;;;;;;;10.98;54.78;99955.16;1751144;82;20965;-41
2022/09/09 02:04:53;;;;;;;6.05;3.80;;;;;;;10.95;54.87;99953.91;1750844;82;21028;-40
2022/09/09 02:07:34;;;;;;;;;;;;;;;10.96;54.89;99949.27;1753946;82;21068;-40
2022/09/09 02:10:11;;;;;;;7.33;4.30;;;;;;;10.97;54.86;99952.22;1751002;81;21094;-40
2022/09/09 02:12:42;;;;;;;5.47;4.00;;;;;;;10.83;55.09;99953.98;1750916;82;21044;-40
2022/09/09 02:15:50;;;;;;;6.35;4.08;;;;;;;10.83;55.11;99952.06;1750818;82;21582;-40
2022/09/09 02:18:23;;;;;;;8.45;4.15;;;;;;;10.84;55.02;99948.20;1750998;82;21080;-40
2022/09/09 02:20:51;;;;;;;6.10;4.20;;;;;;;10.81;55.20;99942.11;1751012;82;21024;-40
2022/09/09 02:23:18;;;;;;;7.80;3.98;;;;;;;10.81;55.21;99950.81;1750966;82;22105;-41
2022/09/09 02:25:46;;;;;;;7.40;4.42;;;;;;;10.81;55.21;99950.81;1751058;82;21523;-41
2022/09/09 02:28:17;;;;;;;5.37;3.60;;;;;;;10.80;55.17;99952.73;1750830;82;21550;-41
2022/09/09 02:30:44;;;;;;;6.03;4.10;;;;;;;10.79;55.19;99955.25;1743906;82;21049;-40
2022/09/09 02:33:12;;;;;;;6.92;3.75;;;;;;;10.77;55.29;99950.73;1743079;82;21074;-41
2022/09/09 02:35:42;;;;;;;9.85;4.40;;;;;;;10.76;55.28;99959.99;1743082;82;21334;-40
2022/09/09 02:38:12;;;;;;;8.75;4.40;;;;;;;10.76;55.30;99957.84;1743273;82;21008;-40
2022/09/09 02:40:40;;;;;;;8.65;4.47;;;;;;;10.75;55.33;99963.83;1743169;82;21016;-40
2022/09/09 02:43:06;;;;;;;6.75;3.72;;;;;;;10.75;55.28;99957.05;1721937;82;21089;-41
2022/09/09 02:46:04;;;;;;;7.50;3.90;;;;;;;10.73;55.25;99960.70;1721906;82;21029;-40
2022/09/09 02:48:44;;;;;;;8.75;4.10;;;;;;;10.70;55.28;99960.02;1744922;82;21120;-41
2022/09/09 02:51:17;;;;;;;7.30;4.05;;;;;;;10.67;55.39;99961.28;1742777;82;20996;-40
2022/09/09 02:54:13;;;;;;;7.20;4.20;;;;;;;10.65;55.41;99960.26;1743264;82;21009;-40
2022/09/09 02:56:44;;;;;;;7.62;4.50;;;;;;;10.65;55.51;99962.97;1742044;82;20977;-40
2022/09/09 02:59:11;;;;;;;8.90;4.20;;;;;;;10.64;55.56;99971.47;1710841;83;21116;-40
2022/09/09 03:01:39;;;;;;;8.58;4.05;;;;;;;10.62;55.57;99970.45;1707257;84;21137;-40
2022/09/09 03:04:09;;;;;;;7.97;4.50;;;;;;;10.60;55.67;99968.63;1707106;84;21003;-41
2022/09/09 03:06:37;;;;;;;11.00;4.40;;;;;;;10.58;55.87;99976.34;1707111;84;21085;-41
2022/09/09 03:09:07;;;;;;;8.18;4.53;;;;;;;10.56;56.04;99981.87;1743114;82;20906;-40
2022/09/09 03:11:35;;;;;;;8.58;4.53;;;;;;;10.52;56.05;99982.34;1743026;82;21088;-41
2022/09/09 03:14:02;;;;;;;8.38;4.42;;;;;;;10.49;56.05;99982.47;1743222;82;21280;-40
2022/09/09 03:16:33;;;;;;;7.57;4.43;;;;;;;10.46;56.03;99984.49;1743165;82;21571;-40
2022/09/09 03:19:01;;;;;;;9.28;4.87;;;;;;;10.44;56.04;99978.64;1743113;82;21036;-40
2022/09/09 03:21:28;;;;;;;9.15;4.45;;;;;;;10.44;56.15;99982.70;1743064;82;21076;-40
2022/09/09 03:23:55;;;;;;;8.88;4.62;;;;;;;10.43;56.21;99984.63;1742991;82;21020;-40
2022/09/09 03:26:22;;;;;;;9.43;4.60;;;;;;;10.44;56.31;99981.35;1742873;80;21248;-40
2022/09/09 03:28:51;;;;;;;9.23;5.03;;;;;;;10.42;56.32;99982.25;1734140;82;21079;-40
2022/09/09 03:31:19;;;;;;;7.17;4.17;;;;;;;10.42;56.31;99974.12;1742820;82;20989;-40
2022/09/09 03:33:46;;;;;;;8.05;4.40;;;;;;;10.40;56.40;99971.77;1742879;82;21044;-40
2022/09/09 03:36:15;;;;;;;10.40;4.80;;;;;;;10.39;56.42;99969.39;1742805;82;21523;-40
2022/09/09 03:38:41;;;;;;;9.03;4.58;;;;;;;10.42;56.58;99980.89;1742909;82;21135;-40
2022/09/09 03:41:08;;;;;;;8.53;4.58;;;;;;;10.41;56.61;99975.25;1742751;82;21525;-40
2022/09/09 03:43:37;;;;;;;8.63;4.67;;;;;;;10.41;56.62;99973.89;1742871;82;21008;-40
2022/09/09 03:46:05;;;;;;;6.30;4.27;;;;;;;10.42;56.63;99965.42;1743111;82;20969;-40
2022/09/09 03:48:32;;;;;;;10.20;4.60;;;;;;;10.42;56.53;99974.12;1742929;82;21676;-40
2022/09/09 03:51:01;;;;;;;8.85;4.30;;;;;;;10.41;56.46;99962.48;1743222;82;21133;-40
2022/09/09 03:53:28;;;;;;;7.47;4.78;;;;;;;10.41;56.56;99968.47;1743201;82;20969;-40
2022/09/09 03:55:59;;;;;;;8.13;4.65;;;;;;;10.42;56.58;99970.84;1743225;82;20933;-40
2022/09/09 03:58:26;;;;;;;7.80;4.10;;;;;;;10.45;56.63;99978.87;1743650;82;21508;-40
2022/09/09 04:00:57;;;;;;;6.20;4.05;;;;;;;10.45;56.66;99973.45;1721835;82;21017;-40
2022/09/09 04:03:26;;;;;;;9.08;5.67;;;;;;;10.46;56.65;99973.09;1743123;82;21847;-40
2022/09/09 04:05:54;;;;;;;10.48;5.83;;;;;;;10.50;56.52;99973.21;1742833;82;21009;-40
2022/09/09 04:08:22;;;;;;;11.55;6.60;;;;;;;10.54;56.47;99989.58;1743059;82;21012;-40
2022/09/09 04:10:49;;;;;;;9.98;6.05;;;;;;;10.56;56.46;99989.44;1742809;82;21555;-40
2022/09/09 04:13:17;;;;;;;10.43;6.03;;;;;;;10.57;56.41;99983.45;1743064;82;21057;-40
2022/09/09 04:15:57;;;;;;;10.28;5.87;;;;;;;10.59;56.35;99987.41;1743162;82;21890;-40
2022/09/09 04:18:24;;;;;;;8.90;5.28;;;;;;;10.61;56.32;99990.55;1743094;82;20997;-41
2022/09/09 04:20:52;;;;;;;9.20;4.53;;;;;;;10.62;56.37;99988.07;1742913;82;20934;-40
2022/09/09 04:23:20;;;;;;;8.60;5.08;;;;;;;10.66;56.28;99988.95;1743257;82;21081;-40
2022/09/09 04:25:48;;;;;;;8.33;5.17;;;;;;;10.69;56.20;99991.56;1742945;82;21020;-40
2022/09/09 04:28:16;;;;;;;8.68;4.58;;;;;;;10.70;56.17;100000.69;1742698;82;21639;-40
2022/09/09 04:30:43;;;;;;;9.03;4.60;;;;;;;10.73;56.15;100006.01;1702757;83;20965;-40
2022/09/09 04:33:11;;;;;;;8.95;4.95;;;;;;;10.77;56.12;100006.33;1720978;83;21535;-40
2022/09/09 04:35:38;;;;;;;8.43;5.22;;;;;;;10.80;56.13;100009.70;1721023;83;20973;-40
2022/09/09 04:38:10;;;;;;;9.80;4.83;;;;;;;10.85;56.15;100012.16;1721247;83;21038;-40
2022/09/09 04:40:34;;;;;;;8.13;3.43;;;;;;;10.93;56.12;100015.09;1721234;83;21109;-40
2022/09/09 04:43:04;;;;;;;9.58;4.75;;;;;;;10.98;55.96;100016.20;1720857;83;21528;-40
2022/09/09 04:45:31;;;;;;;8.68;4.65;;;;;;;11.01;55.83;100023.64;1721267;83;21028;-40
2022/09/09 04:47:59;;;;;;;8.85;4.75;;;;;;;11.05;55.65;100031.30;1720925;83;21006;-40
2022/09/09 04:50:26;;;;;;;10.38;4.90;;;;;;;11.11;55.67;100032.64;1720945;83;21060;-40
2022/09/09 04:52:54;;;;;;;8.03;4.70;;;;;;;11.17;55.63;100027.98;1720418;83;23064;-40
2022/09/09 04:55:22;;;;;;;7.70;5.30;;;;;;;11.25;55.50;100015.38;1720800;83;21031;-40
2022/09/09 04:57:49;;;;;;;10.50;4.90;;;;;;;11.36;55.51;100008.88;1721033;83;21673;-40
2022/09/09 05:00:17;;;;;;;6.80;4.78;;;;;;;11.44;55.31;100018.20;1720979;83;21085;-40
2022/09/09 05:02:44;;;;;;;7.45;4.62;;;;;;;11.53;55.03;100010.68;1720993;83;21044;-40
2022/09/09 05:05:11;;;;;;;10.63;5.33;;;;;;;11.60;54.81;100014.95;1702489;83;21586;-40
2022/09/09 05:07:41;;;;;;;11.48;5.10;;;;;;;11.67;54.84;100009.67;1720934;83;21014;-40
2022/09/09 05:10:09;;;;;;;8.50;5.12;;;;;;;11.75;54.73;100001.97;1721174;83;21013;-40
2022/09/09 05:12:37;;;;;;;8.83;5.17;;;;;;;11.81;54.73;99996.27;1721131;83;21674;-40
2022/09/09 05:15:06;;;;;;;9.35;5.08;;;;;;;11.89;54.70;99992.58;1721089;83;21033;-40
2022/09/09 05:17:35;;;;;;;5.85;4.37;;;;;;;11.95;54.57;99991.96;1721105;83;20974;-40
2022/09/09 05:20:04;;;;;;;7.37;4.40;;;;;;;12.04;54.57;99988.48;1721156;83;21578;-40
2022/09/09 05:22:31;;;;;;;10.00;4.95;;;;;;;12.13;54.27;99989.64;1721433;83;21016;-40
2022/09/09 05:24:58;;;;;;;6.62;4.20;;;;;;;12.22;54.11;99982.08;1717113;83;21593;-40
2022/09/09 05:27:25;;;;;;;6.95;3.92;;;;;;;12.33;53.86;99987.75;1721031;83;21109;-40
2022/09/09 05:29:52;;;;;;;5.55;3.87;;;;;;;12.42;53.62;99987.77;1722923;82;21148;-41
2022/09/09 05:32:19;;;;;;;5.47;3.55;;;;;;;12.51;53.16;99991.63;1742937;82;20933;-40
2022/09/09 05:34:47;;;;;;;6.40;4.00;;;;;;;12.59;52.79;99992.77;1743320;82;21093;-40
2022/09/09 05:37:16;;;;;;;8.43;3.47;;;;;;;12.64;52.21;99985.69;1742867;82;20969;-41
2022/09/09 05:39:43;;;;;;;5.72;3.80;;;;;;;12.69;52.14;99991.98;1743114;82;21633;-40
2022/09/09 05:44:44;;;;;;;6.75;3.62;;;;;;;12.84;52.13;99990.56;1829734;78;22544;-40
2022/09/09 05:47:12;;;;;;;7.35;3.72;;;;;;;12.82;51.92;100005.11;1802612;79;20923;-40
2022/09/09 05:49:39;;;;;;;6.87;3.80;;;;;;;12.93;51.69;100004.73;1802847;79;21118;-40
2022/09/09 05:52:06;;;;;;;6.15;3.58;;;;;;;13.04;51.83;100000.86;1793316;79;20905;-41
2022/09/09 05:54:33;;;;;;;6.83;3.98;;;;;;;13.14;51.48;100001.67;1793686;79;21014;-40
2022/09/09 05:57:00;;;;;;;8.10;4.10;;;;;;;13.25;51.35;100001.30;1777338;79;20956;-41
2022/09/09 05:59:28;;;;;;;6.17;3.75;;;;;;;13.35;51.02;100002.64;1763126;81;21008;-41
2022/09/09 06:01:56;;;;;;;7.97;3.98;;;;;;;13.44;50.54;100002.62;1751042;82;21144;-41
2022/09/09 06:04:27;;;;;;;6.53;3.55;;;;;;;13.51;50.23;100014.80;1746657;82;21077;-41
2022/09/09 06:06:55;;;;;;;6.70;3.45;;;;;;;13.59;50.07;100013.75;1730322;82;21472;-40
2022/09/09 06:09:23;;;;;;;6.87;3.62;;;;;;;13.66;49.68;100001.59;1777218;80;21012;-41
2022/09/09 06:11:50;;;;;;;5.87;3.60;;;;;;;13.72;49.52;99997.42;1791305;80;21534;-41
2022/09/09 06:14:18;;;;;;;9.48;3.30;;;;;;;13.78;49.64;100002.78;1791398;80;21193;-41
2022/09/09 06:16:46;;;;;;;5.95;3.50;;;;;;;13.86;49.42;100014.00;1770416;80;21516;-41
2022/09/09 06:19:15;;;;;;;4.75;3.30;;;;;;;13.93;49.06;100010.05;1764180;81;21016;-41
2022/09/09 06:21:44;;;;;;;5.53;3.25;;;;;;;14.02;49.00;100006.48;1764755;80;21093;-43
2022/09/09 06:24:13;;;;;;;8.40;3.20;;;;;;;14.13;48.64;100008.01;1764716;81;21586;-44
2022/09/09 06:26:40;;;;;;;6.47;3.22;;;;;;;14.23;48.69;100010.11;1764996;81;21184;-41
2022/09/09 06:29:09;;;;;;;6.62;3.47;;;;;;;14.35;48.34;100002.48;1734869;81;20938;-41
2022/09/09 06:31:36;;;;;;;4.72;3.25;;;;;;;14.49;48.14;100000.55;1755897;80;20905;-41
2022/09/09 06:34:08;;;;;;;5.65;2.70;;;;;;;14.64;47.86;100000.16;1764068;80;21032;-40
2022/09/09 06:36:38;;;;;;;5.25;2.83;;;;;;;14.78;47.12;99998.97;1762679;80;21498;-40
2022/09/09 06:39:06;;;;;;;4.90;3.08;;;;;;;14.91;47.19;100000.28;1731593;82;21092;-41
2022/09/09 06:41:34;;;;;;;6.75;3.45;;;;;;;15.04;46.17;99992.64;1776997;80;20969;-41
2022/09/09 06:44:03;;;;;;;3.67;2.52;;;;;;;15.15;46.19;99995.67;1778947;80;21581;-41
2022/09/09 06:46:35;;;;;;;4.60;2.75;;;;;;;15.30;46.01;99990.38;1768701;80;21041;-41
2022/09/09 06:49:02;;;;;;;4.20;2.92;;;;;;;15.42;45.63;99990.88;1802959;79;21522;-41
2022/09/09 06:51:36;;;;;;;4.30;2.50;;;;;;;15.55;45.39;99995.50;1802724;79;23105;-41
2022/09/09 06:54:04;;;;;;;5.70;2.67;;;;;;;15.63;45.28;100000.68;1802427;79;20965;-41
2022/09/09 06:56:37;;;;;;;3.75;2.30;;;;;;;15.69;44.62;100006.56;1755929;81;21077;-44
2022/09/09 06:59:08;;;;;;;6.10;2.50;;;;;;;15.70;44.50;100009.50;1719500;82;21004;-44
2022/09/09 07:01:47;;;;;;;3.65;2.45;;;;;;;15.69;44.68;100007.92;1723538;83;21017;-44
2022/09/09 07:04:13;;;;;;;3.98;2.33;;;;;;;15.72;44.30;100011.87;1723282;81;21860;-44
2022/09/09 07:06:44;;;;;;;5.42;2.30;;;;;;;15.73;44.08;100015.60;1759728;81;20956;-41
2022/09/09 07:09:15;;;;;;;6.58;2.20;;;;;;;15.77;43.64;100009.58;1740380;82;21025;-41
2022/09/09 07:11:46;;;;;;;4.03;2.37;;;;;;;15.80;43.59;100016.22;1756570;81;21021;-41
2022/09/09 07:14:14;;;;;;;4.45;2.37;;;;;;;15.80;43.51;100017.59;1760026;80;20984;-41
2022/09/09 07:16:44;;;;;;;4.17;2.40;;;;;;;15.84;43.57;100010.98;1751002;82;21830;-44
2022/09/09 07:19:12;;;;;;;3.30;2.20;;;;;;;15.91;43.77;100011.05;1750760;82;20989;-44
2022/09/09 07:21:40;;;;;;;3.25;2.08;;;;;;;16.01;43.36;100006.25;1749454;81;21586;-44
2022/09/09 07:24:09;;;;;;;3.77;2.02;;;;;;;16.13;42.90;100001.62;1747019;82;21116;-44
2022/09/09 07:26:38;;;;;;;5.22;2.52;;;;;;;16.23;42.33;100018.11;1737730;82;21017;-44
2022/09/09 07:29:06;;;;;;;5.10;2.60;;;;;;;16.31;42.27;100023.84;1750841;82;21265;-43
2022/09/09 07:31:36;;;;;;;5.97;2.70;;;;;;;16.42;41.79;100026.05;1739305;82;21017;-43
2022/09/09 07:34:06;;;;;;;4.25;2.33;;;;;;;16.52;41.66;100017.69;1732598;82;20926;-44
2022/09/09 07:36:35;;;;;;;3.85;2.58;;;;;;;16.64;41.20;100013.87;1732709;82;21497;-44
2022/09/09 07:39:08;;;;;;;4.05;2.47;;;;;;;16.73;40.82;100002.78;1745474;82;21040;-44
2022/09/09 07:41:41;;;;;;;6.37;2.30;;;;;;;16.85;40.71;100009.27;1750175;82;21263;-44
2022/09/09 07:44:16;;;;;;;5.05;2.27;;;;;;;16.94;40.28;100006.95;1735896;81;20974;-45
2022/09/09 07:46:45;;;;;;;4.33;1.90;;;;;;;17.02;40.09;100013.83;1712856;82;21572;-43
2022/09/09 07:49:14;;;;;;;3.00;2.00;;;;;;;17.07;39.71;100017.56;1711569;82;21030;-43
2022/09/09 07:51:44;;;;;;;2.60;1.98;;;;;;;17.09;39.38;100020.72;1711658;82;21073;-44
2022/09/09 07:54:14;;;;;;;3.90;1.80;;;;;;;17.10;39.33;100022.27;1707219;82;21773;-43
2022/09/09 07:56:42;;;;;;;5.78;2.10;;;;;;;17.14;38.78;100022.47;1740440;82;21020;-44
2022/09/09 07:59:11;;;;;;;3.57;1.80;;;;;;;17.28;38.30;100021.75;1717163;82;20962;-44
2022/09/09 08:01:46;;;;;;;3.70;2.10;;;;;;;17.28;38.30;100021.75;1758764;80;21470;-44
2022/09/09 08:04:18;;;;;;;3.05;1.92;;;;;;;17.36;38.63;100020.00;1723096;83;21508;-45
2022/09/09 08:06:57;;;;;;;4.92;1.95;;;;;;;17.48;38.67;100011.97;1711760;83;21997;-44
2022/09/09 08:09:28;;;;;;;4.42;1.80;;;;;;;17.61;37.83;100017.33;1710155;83;21032;-44
2022/09/09 08:11:59;;;;;;;3.70;1.87;;;;;;;17.71;37.52;100014.39;1710199;83;21042;-44
2022/09/09 08:14:27;;;;;;;3.87;2.30;;;;;;;17.76;37.32;100016.74;1710065;83;20961;-44
2022/09/09 08:16:56;;;;;;;4.55;2.02;;;;;;;17.76;37.35;100025.76;1709815;83;21073;-44
2022/09/09 08:19:25;;;;;;;5.50;2.02;;;;;;;17.77;37.53;100021.03;1729986;82;21547;-43
2022/09/09 08:21:52;;;;;;;4.58;1.70;;;;;;;17.79;37.55;100012.63;1742672;82;21040;-44
2022/09/09 08:24:19;;;;;;;5.87;1.92;;;;;;;17.86;37.82;100007.73;1742157;82;21029;-43
2022/09/09 08:26:49;;;;;;;6.00;1.80;;;;;;;17.93;37.44;100007.72;1742275;82;21351;-43
2022/09/09 08:29:16;;;;;;;3.22;1.95;;;;;;;17.99;36.73;100010.85;1742618;82;21089;-43
2022/09/09 08:31:52;;;;;;;5.20;2.40;;;;;;;18.02;36.51;100012.21;1742383;82;21220;-43
2022/09/09 08:34:21;;;;;;;5.28;2.17;;;;;;;18.05;36.70;100012.03;1742682;82;20966;-43
2022/09/09 08:36:49;;;;;;;3.90;1.98;;;;;;;18.02;36.60;100004.56;1742619;82;20982;-44
2022/09/09 08:39:18;;;;;;;4.50;2.10;;;;;;;18.02;36.92;100009.47;1728682;82;21053;-43
2022/09/09 08:42:18;;;;;;;4.58;2.00;;;;;;;18.06;36.40;100004.75;1782206;80;21033;-44
2022/09/09 08:45:15;;;;;;;3.80;1.77;;;;;;;18.06;35.82;100004.75;1800433;79;21135;-43
2022/09/09 08:47:54;;;;;;;4.47;2.52;;;;;;;18.05;36.55;99993.61;1782708;79;20977;-44
2022/09/09 08:50:35;;;;;;;6.05;2.37;;;;;;;18.18;36.45;99987.11;1743899;81;20993;-44
2022/09/09 08:53:18;;;;;;;4.83;2.30;;;;;;;18.33;36.70;99983.16;1769280;80;21524;-44
2022/09/09 08:55:58;;;;;;;4.72;2.67;;;;;;;18.53;36.61;99990.36;1720948;82;21050;-44
2022/09/09 08:58:29;;;;;;;5.90;2.58;;;;;;;18.78;36.03;99995.79;1720778;82;22072;-44
2022/09/09 09:01:12;;;;;;;5.30;2.62;;;;;;;19.00;35.59;99988.41;1744209;82;21041;-44
2022/09/09 09:03:58;;;;;;;6.15;2.80;;;;;;;19.21;35.35;99987.52;1721474;82;20934;-44
2022/09/09 09:06:58;;;;;;;4.90;2.52;;;;;;;19.39;34.99;99981.89;1728806;82;21032;-43
2022/09/09 09:09:40;;;;;;;5.03;2.77;;;;;;;19.50;34.78;99985.38;1750752;82;20985;-43
2022/09/09 09:12:22;;;;;;;4.45;2.42;;;;;;;19.64;34.95;99983.11;1718474;82;21113;-44
2022/09/09 09:14:50;;;;;;;4.78;2.27;;;;;;;19.83;34.28;99977.05;1706458;82;21480;-43
2022/09/09 09:17:22;;;;;;;19.42;3.60;;;;;;;19.97;33.57;99964.54;1748085;82;21052;-41
2022/09/09 09:19:50;;;;;;;5.30;2.50;;;;;;;20.07;33.51;99965.63;1723806;82;21551;-45
2022/09/09 09:22:31;;;;;;;3.47;2.12;;;;;;;20.15;33.19;99969.27;1735984;82;21516;-41
2022/09/09 09:25:23;;;;;;;5.50;2.27;;;;;;;20.21;32.61;99959.38;1750908;82;21254;-41
2022/09/09 09:28:05;;;;;;;5.80;2.30;;;;;;;20.22;32.25;99955.44;1750691;82;21053;-41
2022/09/09 09:30:48;;;;;;;3.15;2.30;;;;;;;20.17;32.15;99962.77;1750613;81;21088;-44
2022/09/09 09:33:29;;;;;;;5.17;2.15;;;;;;;20.03;32.34;99957.41;1750531;82;20984;-42
2022/09/09 09:35:56;;;;;;;3.60;2.17;;;;;;;19.86;32.68;99959.72;1750405;82;21104;-45
2022/09/09 09:38:26;;;;;;;6.72;2.20;;;;;;;19.78;32.99;99965.89;1750285;81;21232;-45
2022/09/09 09:41:00;;;;;;;4.65;2.12;;;;;;;19.75;32.53;99957.68;1741644;81;21057;-45
2022/09/09 09:43:35;;;;;;;3.55;2.08;;;;;;;19.66;32.68;99946.34;1750607;82;21025;-45
2022/09/09 09:46:05;;;;;;;3.25;1.87;;;;;;;19.63;32.52;99952.07;1745564;82;21009;-45
2022/09/09 09:48:34;;;;;;;4.22;2.10;;;;;;;19.61;32.37;99948.93;1745679;81;20984;-45
2022/09/09 09:51:07;;;;;;;4.45;2.52;;;;;;;19.58;32.55;99955.26;1745589;82;21144;-44
2022/09/09 09:53:36;;;;;;;4.20;2.02;;;;;;;19.56;32.71;99956.86;1737101;81;21043;-45
2022/09/09 09:56:06;;;;;;;5.67;2.23;;;;;;;19.53;32.93;99961.97;1745870;82;20994;-44
2022/09/09 09:58:49;;;;;;;2.98;1.77;;;;;;;19.55;32.63;99962.95;1745498;82;21108;-45
2022/09/09 10:01:29;;;;;;;3.90;2.20;;;;;;;19.57;32.82;99973.53;1745433;81;21053;-44
2022/09/09 10:03:59;;;;;;;;;;;;;;;19.60;32.33;99976.86;1748483;82;22705;-45
2022/09/09 10:06:43;;;;;;;4.58;2.22;;;;;;;19.62;32.42;99964.84;1745339;82;21565;-45
2022/09/09 10:09:33;;;;;;;2.72;1.90;;;;;;;19.60;32.24;99979.62;1744229;82;21536;-42
2022/09/09 10:12:30;;;;;;;5.20;2.05;;;;;;;19.69;31.88;99971.09;1745862;82;21080;-42
2022/09/09 10:15:05;;;;;;;4.78;1.85;;;;;;;19.76;32.28;99975.14;1666975;82;21095;-42
2022/09/09 10:18:13;;;;;;;3.30;2.15;;;;;;;19.87;32.23;99976.42;1745311;82;21145;-42
2022/09/09 10:20:48;;;;;;;5.90;2.20;;;;;;;19.96;32.46;99971.23;1745659;82;21013;-41
2022/09/09 10:23:54;;;;;;;3.52;2.25;;;;;;;20.09;31.99;99970.89;1734526;82;20945;-42
2022/09/09 10:26:53;;;;;;;4.60;2.00;;;;;;;20.15;31.47;99978.91;1745358;82;21053;-42
2022/09/09 10:29:48;;;;;;;2.95;1.98;;;;;;;20.13;31.62;99971.66;1745940;82;21104;-42
2022/09/09 10:32:42;;;;;;;3.27;2.15;;;;;;;20.13;31.79;99963.41;1745909;82;21281;-42
2022/09/09 10:35:38;;;;;;;2.87;1.60;;;;;;;20.07;31.71;99974.67;1745923;82;20998;-41
2022/09/09 10:38:29;;;;;;;2.67;1.70;;;;;;;19.98;31.82;99970.23;1746043;81;20957;-42
2022/09/09 10:41:07;;;;;;;3.95;1.98;;;;;;;19.85;32.00;99984.30;1746163;82;21665;-41
2022/09/09 10:44:08;;;;;;;6.40;2.00;;;;;;;19.75;32.15;99978.31;1745722;82;21158;-42
2022/09/09 10:46:49;;;;;;;3.20;1.90;;;;;;;19.69;32.68;99970.30;1746097;82;21140;-42
2022/09/09 10:49:57;;;;;;;3.30;1.95;;;;;;;19.66;32.25;99979.34;1746027;82;21020;-42
2022/09/09 10:52:52;;;;;;;3.37;1.80;;;;;;;19.61;32.11;99975.66;1746020;81;21021;-42
2022/09/09 10:55:22;;;;;;;7.25;2.17;;;;;;;19.55;32.71;99973.17;1746001;82;21579;-42
2022/09/09 10:57:55;;;;;;;3.60;1.70;;;;;;;19.51;32.96;99969.84;1746185;82;21092;-42
2022/09/09 11:00:42;;;;;;;4.85;1.75;;;;;;;19.54;33.05;99960.01;1745021;82;21268;-42
2022/09/09 11:03:21;;;;;;;;;;;;;;;19.59;33.24;99968.42;1748550;82;20933;-42
2022/09/09 11:06:02;;;;;;;4.27;1.97;;;;;;;19.61;32.73;99977.03;1746334;81;20162;-42
2022/09/09 11:08:31;;;;;;;5.70;2.35;;;;;;;19.49;33.04;99973.60;1738960;82;20969;-41
2022/09/09 11:11:16;;;;;;;4.42;2.02;;;;;;;19.47;32.63;99964.96;1716804;82;22084;-45
2022/09/09 11:14:08;;;;;;;3.90;1.85;;;;;;;19.45;32.89;99965.97;1735757;82;23158;-44
2022/09/09 11:16:47;;;;;;;4.25;1.85;;;;;;;19.44;32.53;99966.37;1733002;82;20992;-45
2022/09/09 11:19:26;;;;;;;5.55;1.77;;;;;;;19.42;32.62;99957.11;1745860;82;20972;-45
2022/09/09 11:21:54;;;;;;;4.17;1.62;;;;;;;19.41;32.44;99957.53;1744753;82;21006;-45
2022/09/09 11:24:38;;;;;;;13.98;7.87;;;;;;;19.36;32.31;99957.38;1742667;82;21872;-44
2022/09/09 11:27:29;;;;;;;6.00;2.20;;;;;;;19.31;32.13;99945.43;1732538;82;21243;-45
2022/09/09 11:30:24;;;;;;;3.33;1.90;;;;;;;19.26;32.13;99954.69;1737197;82;22029;-45
2022/09/09 11:33:41;;;;;;;5.95;1.70;;;;;;;19.17;32.36;99960.62;1611827;88;21060;-44
2022/09/09 11:36:35;;;;;;;4.65;1.90;;;;;;;19.11;32.12;99962.25;1592284;90;21245;-45
2022/09/09 11:39:31;;;;;;;2.92;2.05;;;;;;;19.01;32.36;99952.88;1714348;82;21001;-45
2022/09/09 11:42:18;;;;;;;6.25;2.37;;;;;;;18.97;32.63;99954.09;1743923;82;23150;-44
2022/09/09 11:44:45;;;;;;;4.42;1.95;;;;;;;18.93;32.22;99952.72;1744490;82;21062;-45
2022/09/09 11:47:31;;;;;;;8.10;2.27;;;;;;;18.87;32.17;99954.92;1739140;82;21009;-44
2022/09/09 11:50:19;;;;;;;3.25;2.15;;;;;;;18.82;32.14;99958.09;1726621;82;21586;-45
2022/09/09 11:52:49;;;;;;;4.72;2.05;;;;;;;18.74;32.22;99955.95;1724734;82;21069;-44
2022/09/09 11:55:30;;;;;;;6.08;2.05;;;;;;;18.66;32.45;99950.31;1701048;83;21220;-44
2022/09/09 11:58:06;;;;;;;4.20;1.82;;;;;;;18.61;32.57;99941.89;1729202;82;20997;-44
2022/09/09 12:00:45;;;;;;;3.77;1.95;;;;;;;18.57;32.92;99943.88;1736843;81;20981;-45
2022/09/09 12:03:45;;;;;;;;;;;;;;;18.54;32.89;99946.03;1735905;82;20985;-44
2022/09/09 12:06:27;;;;;;;;;;;;;;;18.50;32.89;99952.69;1742698;82;20131;-44
2022/09/09 12:09:11;;;;;;;3.90;1.87;;;;;;;18.32;33.08;99947.27;1724202;83;23142;-45
2022/09/09 12:11:37;;;;;;;6.08;1.77;;;;;;;18.23;33.20;99956.52;1778700;79;21036;-44